Time;durP1;ratioP1;P1;durP2;ratioP2;P2;SDS_P1;SDS_P2;PMS_P1;PMS_P2;Temp;Humidity;BMP_temperature;BMP_pressure;BME280_temperature;BME280_humidity;BME280_pressure;Samples;Min_cycle;Max_cycle;Signal;HPM_P1;HPM_P2
2021/10/21 00:02:06;;;;;;;37.03;29.40;;;15.20;89.20;;;;;;5016024;28;20501;-71
2021/10/21 00:04:32;;;;;;;34.92;26.85;;;15.20;89.30;;;;;;5015804;28;20034;-72
2021/10/21 00:06:58;;;;;;;34.58;27.50;;;15.10;89.30;;;;;;5015514;28;20492;-72
2021/10/21 00:09:24;;;;;;;37.13;28.52;;;15.20;89.30;;;;;;5015807;28;20038;-72
2021/10/21 00:11:50;;;;;;;33.22;25.60;;;15.20;89.40;;;;;;5015769;28;20037;-72
2021/10/21 00:14:16;;;;;;;27.38;21.90;;;15.20;89.60;;;;;;5015662;28;20418;-72
2021/10/21 00:16:41;;;;;;;26.92;21.55;;;15.10;89.30;;;;;;5015722;28;20026;-71
2021/10/21 00:19:07;;;;;;;23.55;21.05;;;15.20;89.00;;;;;;5015357;28;20037;-72
2021/10/21 00:21:33;;;;;;;24.02;16.83;;;15.20;89.00;;;;;;5015628;28;20489;-72
2021/10/21 00:23:59;;;;;;;19.67;12.90;;;15.20;88.90;;;;;;5015687;28;20060;-72
2021/10/21 00:26:24;;;;;;;21.40;15.95;;;15.10;88.50;;;;;;5015704;28;20026;-72
2021/10/21 00:28:50;;;;;;;19.60;15.55;;;15.20;88.30;;;;;;5015513;28;20034;-71
2021/10/21 00:31:16;;;;;;;19.73;15.85;;;15.20;88.30;;;;;;5015431;28;20395;-71
2021/10/21 00:33:42;;;;;;;19.98;16.55;;;15.20;88.70;;;;;;5015367;28;20030;-71
2021/10/21 00:36:07;;;;;;;18.38;15.45;;;15.20;88.60;;;;;;5015632;28;20030;-72
2021/10/21 00:38:33;;;;;;;18.88;16.40;;;15.20;88.20;;;;;;5015226;28;20429;-72
2021/10/21 00:40:59;;;;;;;21.60;15.80;;;15.20;88.20;;;;;;5015164;28;20113;-72
2021/10/21 00:43:25;;;;;;;19.45;14.57;;;15.20;88.30;;;;;;5015351;28;20026;-71
2021/10/21 00:45:51;;;;;;;19.52;14.07;;;15.20;88.10;;;;;;5015203;28;20072;-71
2021/10/21 00:48:17;;;;;;;17.30;13.82;;;15.20;88.00;;;;;;5014950;28;20540;-72
2021/10/21 00:50:43;;;;;;;18.02;13.57;;;15.20;88.60;;;;;;5015196;28;20030;-71
2021/10/21 00:53:10;;;;;;;15.60;13.13;;;15.20;88.50;;;;;;5014127;28;20465;-71
2021/10/21 00:55:36;;;;;;;15.45;11.82;;;15.20;88.40;;;;;;5014977;28;20101;-72
2021/10/21 00:58:03;;;;;;;17.80;12.00;;;15.20;88.10;;;;;;5013373;28;20101;-72
2021/10/21 01:00:30;;;;;;;16.92;10.07;;;15.20;88.40;;;;;;5011893;28;20037;-72
2021/10/21 01:02:56;;;;;;;16.48;10.25;;;15.20;88.40;;;;;;5012017;28;20041;-71
2021/10/21 01:05:21;;;;;;;13.77;10.15;;;15.20;88.10;;;;;;5013684;28;20465;-72
2021/10/21 01:07:48;;;;;;;15.65;9.60;;;15.20;88.10;;;;;;5014759;28;20032;-72
2021/10/21 01:10:14;;;;;;;14.27;10.75;;;15.20;88.00;;;;;;5014554;28;20026;-72
2021/10/21 01:12:40;;;;;;;13.60;10.90;;;15.20;87.80;;;;;;5014284;28;20052;-72
2021/10/21 01:15:23;;;;;;;14.50;10.18;;;15.20;87.60;;;;;;5014415;28;20022;-72
2021/10/21 01:17:53;;;;;;;15.07;9.75;;;15.20;87.80;;;;;;5013334;28;20089;-71
2021/10/21 01:20:20;;;;;;;12.52;9.23;;;15.20;87.80;;;;;;5014260;28;20038;-72
2021/10/21 01:22:46;;;;;;;12.70;8.38;;;15.20;87.80;;;;;;5014518;28;20366;-72
2021/10/21 01:25:15;;;;;;;14.55;10.05;;;15.20;88.00;;;;;;5014196;28;20064;-71
2021/10/21 01:27:41;;;;;;;18.58;9.77;;;15.20;88.00;;;;;;5014229;28;20030;-72
2021/10/21 01:30:07;;;;;;;14.73;9.27;;;15.20;87.80;;;;;;5014266;28;20061;-72
2021/10/21 01:32:36;;;;;;;12.85;9.35;;;15.30;88.20;;;;;;5014033;28;20045;-72
2021/10/21 01:35:05;;;;;;;14.10;10.00;;;15.20;88.40;;;;;;5014113;28;20054;-72
2021/10/21 01:37:31;;;;;;;16.10;9.45;;;15.20;88.30;;;;;;5014257;28;20049;-72
2021/10/21 01:39:57;;;;;;;14.48;6.90;;;15.30;88.20;;;;;;5014141;28;20105;-72
2021/10/21 01:42:23;;;;;;;14.13;7.80;;;15.20;88.40;;;;;;5014082;28;20052;-71
2021/10/21 01:44:49;;;;;;;11.43;7.47;;;15.30;88.20;;;;;;5012602;28;20466;-72
2021/10/21 01:47:15;;;;;;;12.90;7.35;;;15.30;88.20;;;;;;5014190;28;20029;-72
2021/10/21 01:49:40;;;;;;;11.77;7.15;;;15.30;88.70;;;;;;5013897;28;20030;-72
2021/10/21 01:52:06;;;;;;;13.18;7.25;;;15.30;88.10;;;;;;5013737;28;20501;-71
2021/10/21 01:54:32;;;;;;;12.88;8.05;;;15.30;88.00;;;;;;5013971;28;20371;-71
2021/10/21 01:56:58;;;;;;;14.18;7.72;;;15.40;88.20;;;;;;5013913;28;20028;-71
2021/10/21 01:59:23;;;;;;;13.25;7.80;;;15.40;88.20;;;;;;5013762;28;20475;-72
2021/10/21 02:01:49;;;;;;;10.48;6.88;;;15.30;88.10;;;;;;5014023;28;20037;-71
2021/10/21 02:04:15;;;;;;;12.70;7.20;;;15.40;87.80;;;;;;5013848;28;20211;-72
2021/10/21 02:06:40;;;;;;;11.18;7.25;;;15.40;87.90;;;;;;5013794;28;20026;-71
2021/10/21 02:09:06;;;;;;;11.65;6.32;;;15.40;87.80;;;;;;5013754;28;20026;-72
2021/10/21 02:11:32;;;;;;;16.42;6.68;;;15.40;87.70;;;;;;5013702;28;20030;-72
2021/10/21 02:13:58;;;;;;;11.15;6.10;;;15.40;88.10;;;;;;5013773;28;20109;-71
2021/10/21 02:16:23;;;;;;;14.00;6.72;;;15.40;87.90;;;;;;5013659;28;20038;-72
2021/10/21 02:18:49;;;;;;;11.70;6.38;;;15.40;87.80;;;;;;5013375;28;20037;-71
2021/10/21 02:21:15;;;;;;;12.18;6.35;;;15.40;87.70;;;;;;5013425;28;20026;-72
2021/10/21 02:23:40;;;;;;;12.90;6.43;;;15.40;87.50;;;;;;5013640;28;20022;-72
2021/10/21 02:26:06;;;;;;;16.25;6.78;;;15.40;87.60;;;;;;5013630;28;20104;-72
2021/10/21 02:28:32;;;;;;;13.52;6.72;;;15.40;87.80;;;;;;5013637;28;20080;-72
2021/10/21 02:30:58;;;;;;;14.57;6.70;;;15.40;87.90;;;;;;5013829;28;20025;-72
2021/10/21 02:33:24;;;;;;;17.15;7.10;;;15.40;88.00;;;;;;5013547;28;20029;-72
2021/10/21 02:35:49;;;;;;;13.30;6.63;;;15.40;88.30;;;;;;5013515;28;20095;-71
2021/10/21 02:38:15;;;;;;;9.45;6.97;;;15.40;88.30;;;;;;5013385;28;20033;-72
2021/10/21 02:40:41;;;;;;;11.88;7.40;;;15.40;88.30;;;;;;5013307;28;20025;-72
2021/10/21 02:43:06;;;;;;;14.93;7.70;;;15.40;88.20;;;;;;5013406;28;20037;-71
2021/10/21 02:45:32;;;;;;;12.38;7.63;;;15.30;88.30;;;;;;5012183;28;20037;-72
2021/10/21 02:47:58;;;;;;;14.02;7.88;;;15.30;88.40;;;;;;5013338;28;20474;-72
2021/10/21 02:50:24;;;;;;;13.50;8.52;;;15.30;88.40;;;;;;5013054;28;20026;-72
2021/10/21 02:52:50;;;;;;;14.35;8.82;;;15.30;88.20;;;;;;5013048;28;20026;-72
2021/10/21 02:55:17;;;;;;;20.77;9.15;;;15.30;88.30;;;;;;5011971;28;20490;-72
2021/10/21 02:57:42;;;;;;;13.73;8.35;;;15.30;88.40;;;;;;5013117;28;20029;-72
2021/10/21 03:00:10;;;;;;;17.92;9.13;;;15.30;88.50;;;;;;5012995;28;20034;-72
2021/10/21 03:02:36;;;;;;;14.10;9.30;;;15.30;88.50;;;;;;5013230;28;20029;-72
2021/10/21 03:05:03;;;;;;;16.67;9.63;;;15.30;88.50;;;;;;5012070;28;20034;-71
2021/10/21 03:07:28;;;;;;;16.75;10.35;;;15.20;88.30;;;;;;5013094;28;20018;-72
2021/10/21 03:09:54;;;;;;;16.38;10.73;;;15.20;88.40;;;;;;5013051;28;20025;-72
2021/10/21 03:12:20;;;;;;;17.85;12.48;;;15.20;88.90;;;;;;5013054;28;20457;-72
2021/10/21 03:14:45;;;;;;;21.48;14.02;;;15.20;88.70;;;;;;5013443;28;20033;-72
2021/10/21 03:17:13;;;;;;;19.75;14.05;;;15.20;88.90;;;;;;5016958;28;20040;-72
2021/10/21 03:19:39;;;;;;;19.70;14.35;;;15.20;89.00;;;;;;5016634;28;20026;-72
2021/10/21 03:22:04;;;;;;;20.42;13.57;;;15.20;89.10;;;;;;5016992;28;20025;-71
2021/10/21 03:24:30;;;;;;;24.80;15.48;;;15.10;89.20;;;;;;5016762;28;20035;-72
2021/10/21 03:26:56;;;;;;;24.27;14.70;;;15.10;89.20;;;;;;5016763;28;20049;-71
2021/10/21 03:29:21;;;;;;;26.02;15.80;;;15.10;89.00;;;;;;5016762;28;20026;-72
2021/10/21 03:31:47;;;;;;;19.55;14.80;;;15.20;89.00;;;;;;5016557;28;20117;-72
2021/10/21 03:34:13;;;;;;;24.42;17.17;;;15.10;88.90;;;;;;5016575;28;20022;-72
2021/10/21 03:36:38;;;;;;;21.02;16.33;;;15.10;89.40;;;;;;5016892;28;20088;-72
2021/10/21 03:39:04;;;;;;;24.27;17.27;;;15.10;88.70;;;;;;5016623;28;20038;-72
2021/10/21 03:41:31;;;;;;;23.80;17.77;;;15.10;88.80;;;;;;5016714;28;20032;-72
2021/10/21 03:43:56;;;;;;;24.20;17.52;;;15.10;89.10;;;;;;5016390;28;20022;-72
2021/10/21 03:46:22;;;;;;;27.33;17.45;;;15.10;89.10;;;;;;5016263;28;20474;-71
2021/10/21 03:48:48;;;;;;;24.75;18.10;;;15.10;89.20;;;;;;5016324;28;20072;-71
2021/10/21 03:51:14;;;;;;;22.23;17.70;;;15.10;89.30;;;;;;5016471;28;20547;-71
2021/10/21 03:53:40;;;;;;;23.67;18.60;;;15.10;89.50;;;;;;5016242;28;20017;-71
2021/10/21 03:56:07;;;;;;;25.75;18.50;;;15.10;89.40;;;;;;5016274;28;20026;-72
2021/10/21 03:58:33;;;;;;;28.80;19.35;;;15.10;89.30;;;;;;5015976;28;20453;-71
2021/10/21 04:00:59;;;;;;;29.23;17.55;;;15.10;89.20;;;;;;5016241;28;20050;-71
2021/10/21 04:03:24;;;;;;;22.08;17.02;;;15.10;89.40;;;;;;5016323;28;20386;-71
2021/10/21 04:05:50;;;;;;;22.10;17.38;;;15.10;89.40;;;;;;5016251;28;20138;-72
2021/10/21 04:08:16;;;;;;;20.13;16.35;;;15.10;89.60;;;;;;5015893;28;20033;-72
2021/10/21 04:10:42;;;;;;;22.08;16.92;;;15.10;89.60;;;;;;5015780;28;20018;-71
2021/10/21 04:13:09;;;;;;;22.80;16.08;;;15.10;89.50;;;;;;5015899;28;20026;-72
2021/10/21 04:15:35;;;;;;;19.13;15.50;;;15.10;89.50;;;;;;5015874;28;20030;-72
2021/10/21 04:18:01;;;;;;;24.30;16.77;;;15.10;89.40;;;;;;5015694;28;20077;-71
2021/10/21 04:20:26;;;;;;;23.80;15.95;;;15.10;89.40;;;;;;5015724;28;20084;-71
2021/10/21 04:22:52;;;;;;;24.13;15.18;;;15.10;89.40;;;;;;5030778;28;20470;-72
2021/10/21 04:25:18;;;;;;;19.00;15.25;;;15.10;89.50;;;;;;5014449;28;20022;-72
2021/10/21 04:27:43;;;;;;;22.17;15.60;;;15.10;89.40;;;;;;5014580;28;20088;-72
2021/10/21 04:30:09;;;;;;;26.65;15.75;;;15.10;89.40;;;;;;5015449;28;20029;-71
2021/10/21 04:32:35;;;;;;;23.08;16.67;;;15.10;89.30;;;;;;5015387;28;20070;-71
2021/10/21 04:35:01;;;;;;;18.17;15.25;;;15.10;89.20;;;;;;5015512;28;20092;-72
2021/10/21 04:37:27;;;;;;;20.23;15.30;;;15.00;89.20;;;;;;5015295;28;20030;-72
2021/10/21 04:39:53;;;;;;;19.73;15.50;;;15.10;89.50;;;;;;5014163;28;20386;-72
2021/10/21 04:42:18;;;;;;;18.65;15.23;;;15.10;89.60;;;;;;5015352;28;20021;-72
2021/10/21 04:44:47;;;;;;;20.00;14.02;;;15.00;89.50;;;;;;5015345;28;20561;-72
2021/10/21 04:47:13;;;;;;;22.58;14.95;;;15.00;89.50;;;;;;5015111;28;20088;-72
2021/10/21 04:49:38;;;;;;;22.17;15.32;;;15.00;89.60;;;;;;5015083;28;20502;-72
2021/10/21 04:52:04;;;;;;;19.10;14.63;;;15.00;89.80;;;;;;5015205;28;20385;-71
2021/10/21 04:54:30;;;;;;;25.23;15.05;;;15.00;89.60;;;;;;5015189;28;20493;-72
2021/10/21 04:56:56;;;;;;;19.95;15.00;;;15.00;89.50;;;;;;5015351;28;20084;-71
2021/10/21 04:59:21;;;;;;;19.25;15.35;;;15.00;89.40;;;;;;5014670;28;20049;-71
2021/10/21 05:01:47;;;;;;;22.55;16.02;;;15.00;89.60;;;;;;5014757;28;20026;-72
2021/10/21 05:04:13;;;;;;;21.63;16.05;;;15.00;90.10;;;;;;5014814;28;20026;-72
2021/10/21 05:06:38;;;;;;;19.05;14.80;;;15.00;89.50;;;;;;5013825;28;20389;-72
2021/10/21 05:09:04;;;;;;;19.58;15.35;;;15.00;89.50;;;;;;5014607;28;20040;-71
2021/10/21 05:11:30;;;;;;;23.15;15.75;;;15.00;89.40;;;;;;5014673;28;20032;-72
2021/10/21 05:13:55;;;;;;;20.67;14.77;;;15.10;89.40;;;;;;5014677;28;20033;-72
2021/10/21 05:16:21;;;;;;;19.92;15.48;;;15.00;89.30;;;;;;5014665;28;20104;-72
2021/10/21 05:18:47;;;;;;;19.55;14.77;;;15.00;89.30;;;;;;5014584;28;20034;-72
2021/10/21 05:21:13;;;;;;;18.73;14.27;;;15.00;89.30;;;;;;5014339;28;20034;-72
2021/10/21 05:23:39;;;;;;;16.95;14.15;;;15.00;89.10;;;;;;5014408;28;20072;-72
2021/10/21 05:26:04;;;;;;;19.90;14.25;;;15.00;89.10;;;;;;5014358;28;20490;-72
2021/10/21 05:28:30;;;;;;;19.67;14.55;;;15.00;89.10;;;;;;5014587;28;20029;-72
2021/10/21 05:30:56;;;;;;;19.27;13.68;;;15.00;89.20;;;;;;5014298;28;20402;-74
2021/10/21 05:33:26;;;;;;;18.65;13.70;;;15.00;89.20;;;;;;5014171;28;20061;-72
2021/10/21 05:35:52;;;;;;;19.70;13.38;;;15.00;89.30;;;;;;5014204;28;20026;-72
2021/10/21 05:38:17;;;;;;;18.23;13.77;;;15.00;89.40;;;;;;5013849;28;20026;-72
2021/10/21 05:40:43;;;;;;;17.25;12.90;;;15.00;89.30;;;;;;5014151;28;20409;-72
2021/10/21 05:43:09;;;;;;;15.48;12.48;;;15.00;89.20;;;;;;5014368;28;20030;-71
2021/10/21 05:45:34;;;;;;;23.67;12.88;;;15.00;89.30;;;;;;5014147;28;20026;-72
2021/10/21 05:48:00;;;;;;;22.35;13.88;;;15.00;89.30;;;;;;5012374;28;20032;-72
2021/10/21 05:50:26;;;;;;;17.80;13.35;;;15.00;89.50;;;;;;5013174;28;20030;-72
2021/10/21 05:52:52;;;;;;;21.13;14.00;;;15.00;89.50;;;;;;5003397;28;20033;-71
2021/10/21 05:55:18;;;;;;;19.60;13.45;;;14.90;89.50;;;;;;4974472;28;20474;-71
2021/10/21 05:57:44;;;;;;;14.27;11.90;;;14.90;89.60;;;;;;5013736;28;20022;-71
2021/10/21 06:00:10;;;;;;;17.90;12.88;;;14.90;89.80;;;;;;5013689;28;20459;-72
2021/10/21 06:02:36;;;;;;;17.40;12.90;;;14.90;89.70;;;;;;5013474;28;20101;-72
2021/10/21 06:05:05;;;;;;;19.88;12.80;;;14.90;89.90;;;;;;5013146;28;20057;-72
2021/10/21 06:07:32;;;;;;;15.45;11.38;;;14.90;89.80;;;;;;5013472;28;20053;-71
2021/10/21 06:09:58;;;;;;;18.05;11.10;;;15.00;89.70;;;;;;5013190;28;20030;-71
2021/10/21 06:12:27;;;;;;;19.00;9.13;;;15.00;89.50;;;;;;5013211;28;20501;-71
2021/10/21 06:14:53;;;;;;;16.98;9.40;;;15.00;88.90;;;;;;5013286;28;20034;-71
2021/10/21 06:17:19;;;;;;;13.30;8.75;;;15.00;88.90;;;;;;5013080;28;20033;-72
2021/10/21 06:19:45;;;;;;;14.02;8.80;;;15.00;88.70;;;;;;5013338;28;20045;-71
2021/10/21 06:22:13;;;;;;;11.77;8.25;;;15.00;88.40;;;;;;5013431;28;20030;-72
2021/10/21 06:24:39;;;;;;;13.35;8.48;;;15.00;88.20;;;;;;5013099;28;20034;-71
2021/10/21 06:27:05;;;;;;;15.32;8.35;;;15.00;88.00;;;;;;5013463;28;20037;-71
2021/10/21 06:29:31;;;;;;;12.55;8.45;;;15.00;87.90;;;;;;5012905;28;20030;-71
2021/10/21 06:31:57;;;;;;;15.98;8.88;;;15.10;88.00;;;;;;5012802;28;20046;-72
2021/10/21 06:34:23;;;;;;;11.60;8.13;;;15.10;88.20;;;;;;5011838;28;20351;-72
2021/10/21 06:36:49;;;;;;;14.10;8.45;;;15.10;88.20;;;;;;5012104;28;20033;-72
2021/10/21 06:39:15;;;;;;;13.38;8.25;;;15.10;88.10;;;;;;5010367;28;20168;-72
2021/10/21 06:41:40;;;;;;;10.05;8.43;;;15.10;88.10;;;;;;5010655;28;20022;-71
2021/10/21 06:44:07;;;;;;;17.35;9.13;;;15.10;88.00;;;;;;5012076;28;20377;-73
2021/10/21 06:46:33;;;;;;;14.27;9.80;;;15.10;87.80;;;;;;5013293;28;20097;-72
2021/10/21 06:49:00;;;;;;;12.60;8.95;;;15.10;87.80;;;;;;5013250;28;20025;-72
2021/10/21 06:51:26;;;;;;;13.27;8.50;;;15.20;87.80;;;;;;5016151;28;20056;-73
2021/10/21 06:53:52;;;;;;;15.20;9.50;;;15.20;87.60;;;;;;5017115;28;20363;-72
2021/10/21 06:56:18;;;;;;;13.75;9.05;;;15.20;87.60;;;;;;5017103;28;20485;-71
2021/10/21 06:58:44;;;;;;;13.55;8.85;;;15.20;87.60;;;;;;5016817;28;20076;-69
2021/10/21 07:01:11;;;;;;;17.33;10.38;;;15.20;87.50;;;;;;5016752;28;20379;-72
2021/10/21 07:03:36;;;;;;;17.65;9.93;;;15.20;87.50;;;;;;5017117;28;20028;-70
2021/10/21 07:06:02;;;;;;;13.82;9.32;;;15.20;87.80;;;;;;5016964;28;20026;-71
2021/10/21 07:08:29;;;;;;;15.50;9.48;;;15.20;88.00;;;;;;5014872;28;20482;-71
2021/10/21 07:11:01;;;;;;;13.07;8.68;;;15.20;87.90;;;;;;5013957;28;20119;-71
2021/10/21 07:13:26;;;;;;;12.63;9.73;;;15.20;87.70;;;;;;5015015;28;20029;-72
2021/10/21 07:15:52;;;;;;;19.08;9.95;;;15.20;87.50;;;;;;5016654;28;20466;-72
2021/10/21 07:18:18;;;;;;;13.35;8.98;;;15.20;87.90;;;;;;5016631;28;20026;-70
2021/10/21 07:20:43;;;;;;;12.82;9.43;;;15.20;87.30;;;;;;5016603;28;20022;-72
2021/10/21 07:23:09;;;;;;;13.05;9.77;;;15.20;87.10;;;;;;5016916;28;20018;-72
2021/10/21 07:25:35;;;;;;;14.40;9.63;;;15.30;87.10;;;;;;5016961;28;20030;-71
2021/10/21 07:28:03;;;;;;;14.35;9.73;;;15.30;87.50;;;;;;5016554;28;20105;-71
2021/10/21 07:30:29;;;;;;;13.18;8.98;;;15.30;87.40;;;;;;5015207;28;20148;-71
2021/10/21 07:32:58;;;;;;;12.68;9.48;;;15.30;87.40;;;;;;5016003;28;20069;-70
2021/10/21 07:35:24;;;;;;;13.85;9.73;;;15.30;87.20;;;;;;5016234;28;20481;-71
2021/10/21 07:37:50;;;;;;;12.88;9.52;;;15.30;87.40;;;;;;5016346;28;20026;-71
2021/10/21 07:40:16;;;;;;;14.65;9.30;;;15.40;87.70;;;;;;5016252;28;20045;-71
2021/10/21 07:42:42;;;;;;;14.93;9.68;;;15.30;87.70;;;;;;5016320;28;20033;-72
2021/10/21 07:45:09;;;;;;;16.77;10.80;;;15.30;87.60;;;;;;5016333;28;20036;-71
2021/10/21 07:47:36;;;;;;;13.02;9.23;;;15.30;87.70;;;;;;5016178;28;20029;-71
2021/10/21 07:50:04;;;;;;;12.93;9.18;;;15.40;87.70;;;;;;5016086;28;20032;-72
2021/10/21 07:52:30;;;;;;;13.32;9.65;;;15.40;87.80;;;;;;5016112;28;20026;-70
2021/10/21 07:54:55;;;;;;;14.38;9.15;;;15.40;87.80;;;;;;5013343;28;20026;-69
2021/10/21 07:57:21;;;;;;;12.70;9.52;;;15.40;87.80;;;;;;5013045;28;20382;-70
2021/10/21 07:59:48;;;;;;;16.02;9.68;;;15.40;87.70;;;;;;5013808;28;20042;-71
2021/10/21 08:02:15;;;;;;;14.45;9.95;;;15.40;87.90;;;;;;5014129;28;20060;-68
2021/10/21 08:04:42;;;;;;;14.27;9.38;;;15.40;88.00;;;;;;5015999;28;20026;-70
2021/10/21 08:07:08;;;;;;;11.20;9.07;;;15.40;88.00;;;;;;5015671;28;20032;-71
2021/10/21 08:09:34;;;;;;;15.27;10.10;;;15.40;87.90;;;;;;5015534;28;20041;-67
2021/10/21 08:12:02;;;;;;;18.25;10.55;;;15.40;88.10;;;;;;5014527;28;20030;-70
2021/10/21 08:14:28;;;;;;;13.52;9.82;;;15.40;88.20;;;;;;5015874;28;20041;-70
2021/10/21 08:16:54;;;;;;;13.05;10.50;;;15.40;88.20;;;;;;5015524;28;20026;-68
2021/10/21 08:19:21;;;;;;;18.67;9.68;;;15.40;88.00;;;;;;5014913;28;20044;-69
2021/10/21 08:21:47;;;;;;;18.75;11.07;;;15.40;88.10;;;;;;5013225;28;20036;-68
2021/10/21 08:24:14;;;;;;;14.02;10.77;;;15.40;87.90;;;;;;5012923;28;20030;-70
2021/10/21 08:26:41;;;;;;;21.85;11.95;;;15.40;88.00;;;;;;5015462;28;20026;-69
2021/10/21 08:29:07;;;;;;;16.95;11.02;;;15.40;88.00;;;;;;5015753;28;20398;-69
2021/10/21 08:31:34;;;;;;;21.17;10.98;;;15.40;88.00;;;;;;5013903;28;20052;-69
2021/10/21 08:34:00;;;;;;;18.15;11.23;;;15.50;88.10;;;;;;5012698;28;20030;-69
2021/10/21 08:36:26;;;;;;;29.70;12.70;;;15.50;88.30;;;;;;5012623;28;20038;-69
2021/10/21 08:38:53;;;;;;;39.95;11.95;;;15.40;89.00;;;;;;5012525;28;20034;-69
2021/10/21 08:41:23;;;;;;;31.10;12.35;;;15.50;89.20;;;;;;5012446;28;20061;-69
2021/10/21 08:43:49;;;;;;;29.48;13.00;;;15.40;89.30;;;;;;5014088;28;20034;-72
2021/10/21 08:46:22;;;;;;;33.15;11.95;;;15.40;89.70;;;;;;5011554;28;20044;-72
2021/10/21 08:48:50;;;;;;;31.50;12.55;;;15.50;88.90;;;;;;5012826;28;20466;-72
2021/10/21 08:51:16;;;;;;;35.83;13.15;;;15.50;88.70;;;;;;5013265;28;20445;-71
2021/10/21 08:53:41;;;;;;;38.80;14.65;;;15.50;88.40;;;;;;5014503;28;20026;-71
2021/10/21 08:56:07;;;;;;;47.17;14.45;;;15.50;88.90;;;;;;5014607;28;20041;-71
2021/10/21 08:58:34;;;;;;;25.63;12.60;;;15.40;89.10;;;;;;5015275;28;20037;-71
2021/10/21 09:01:07;;;;;;;28.75;11.30;;;15.50;89.10;;;;;;5014945;28;20025;-71
2021/10/21 09:09:28;;;;;;;23.77;10.30;;;15.50;88.20;;;;;;5022914;28;20029;-72
2021/10/21 09:12:11;;;;;;;31.30;11.20;;;15.50;88.10;;;;;;5014927;28;20025;-72
2021/10/21 09:14:41;;;;;;;16.38;9.45;;;15.50;88.00;;;;;;5014047;28;20088;-72
2021/10/21 09:17:08;;;;;;;18.73;8.52;;;15.50;88.10;;;;;;5014791;28;20032;-72
2021/10/21 09:19:35;;;;;;;16.00;8.30;;;15.50;88.10;;;;;;5014442;28;20041;-72
2021/10/21 09:22:02;;;;;;;17.77;8.18;;;15.50;88.40;;;;;;5014654;28;20029;-71
2021/10/21 09:24:30;;;;;;;17.42;8.70;;;15.50;88.60;;;;;;5014599;28;20026;-72
2021/10/21 09:27:17;;;;;;;20.70;9.38;;;15.60;88.70;;;;;;5014598;28;20022;-72
2021/10/21 09:29:51;;;;;;;16.00;8.38;;;15.60;88.60;;;;;;5014442;28;20048;-72
2021/10/21 09:32:23;;;;;;;15.45;9.18;;;15.50;88.50;;;;;;5014277;28;20050;-72
2021/10/21 09:34:54;;;;;;;13.68;9.27;;;15.60;88.40;;;;;;5014495;28;20099;-72
2021/10/21 09:37:35;;;;;;;16.45;9.57;;;15.60;88.30;;;;;;5014503;28;20076;-72
2021/10/21 09:40:07;;;;;;;18.27;8.52;;;15.60;88.20;;;;;;5014297;28;20421;-72
2021/10/21 09:42:35;;;;;;;15.93;8.67;;;15.60;88.00;;;;;;5014531;28;20045;-71
2021/10/21 09:45:13;;;;;;;17.42;8.75;;;15.60;87.80;;;;;;5014104;28;20025;-70
2021/10/21 09:47:44;;;;;;;15.25;8.10;;;15.60;87.80;;;;;;5014189;28;20030;-71
2021/10/21 09:50:58;;;;;;;14.95;8.25;;;15.60;87.80;;;;;;5014134;28;20032;-71
2021/10/21 09:53:29;;;;;;;13.73;8.65;;;15.60;88.00;;;;;;5017912;28;20034;-70
2021/10/21 09:56:08;;;;;;;11.93;8.68;;;15.60;88.10;;;;;;5013678;28;20018;-70
2021/10/21 09:58:37;;;;;;;15.57;8.50;;;15.60;88.30;;;;;;5013602;28;20478;-71
2021/10/21 10:01:14;;;;;;;20.30;9.35;;;15.60;88.60;;;;;;5013572;28;20550;-71
2021/10/21 10:03:42;;;;;;;14.82;8.68;;;15.60;89.40;;;;;;5013816;28;20452;-71
2021/10/21 10:06:08;;;;;;;15.30;9.88;;;15.60;89.50;;;;;;5013749;28;20030;-70
2021/10/21 10:08:34;;;;;;;16.55;11.30;;;15.60;89.30;;;;;;5013593;28;20058;-71
2021/10/21 10:11:12;;;;;;;19.98;13.98;;;15.60;89.10;;;;;;5013713;28;20022;-70
2021/10/21 10:13:43;;;;;;;21.35;12.75;;;15.60;88.90;;;;;;5013753;28;20160;-69
2021/10/21 10:16:09;;;;;;;22.10;11.77;;;15.60;88.90;;;;;;5013810;28;20079;-71
2021/10/21 10:18:45;;;;;;;17.85;10.52;;;15.50;89.40;;;;;;5013478;28;20555;-71
2021/10/21 10:21:29;;;;;;;26.80;10.48;;;15.60;89.50;;;;;;5013363;28;20041;-68
2021/10/21 10:23:59;;;;;;;19.30;11.27;;;15.60;89.80;;;;;;5013488;28;20535;-69
2021/10/21 10:26:43;;;;;;;19.90;11.60;;;15.60;89.70;;;;;;5013586;28;20030;-69
2021/10/21 10:29:31;;;;;;;21.23;12.38;;;15.60;90.10;;;;;;5013070;28;20064;-70
2021/10/21 10:31:59;;;;;;;19.75;10.60;;;15.60;90.10;;;;;;5013000;28;20057;-70
2021/10/21 10:34:37;;;;;;;22.58;10.15;;;15.60;90.10;;;;;;5013147;28;20095;-70
2021/10/21 10:37:15;;;;;;;20.65;10.55;;;15.60;90.00;;;;;;5013130;28;20038;-70
2021/10/21 10:39:48;;;;;;;16.98;10.73;;;15.60;90.10;;;;;;5012936;28;20065;-68
2021/10/21 10:42:15;;;;;;;19.75;11.15;;;15.60;90.10;;;;;;5013241;28;20091;-72
2021/10/21 10:44:41;;;;;;;19.00;10.18;;;15.60;90.00;;;;;;5012983;28;20026;-70
2021/10/21 10:47:08;;;;;;;17.98;10.68;;;15.60;90.10;;;;;;5013023;28;20045;-72
2021/10/21 10:49:37;;;;;;;15.32;8.88;;;15.60;90.20;;;;;;5012987;28;20116;-72
2021/10/21 10:52:05;;;;;;;14.52;8.60;;;15.70;90.40;;;;;;5013271;28;20030;-71
2021/10/21 10:54:39;;;;;;;16.05;8.73;;;15.70;90.40;;;;;;5013503;28;20347;-71
2021/10/21 10:57:06;;;;;;;15.75;8.00;;;15.70;90.70;;;;;;5013138;28;20144;-72
2021/10/21 10:59:33;;;;;;;17.42;8.93;;;15.70;90.50;;;;;;5012915;28;20037;-69
2021/10/21 11:02:25;;;;;;;23.05;10.63;;;15.70;90.50;;;;;;5013336;28;20026;-72
2021/10/21 11:07:50;;;;;;;16.08;9.52;;;15.70;90.90;;;;;;5013227;28;20041;-71
2021/10/21 11:10:19;;;;;;;18.33;10.23;;;15.70;90.70;;;;;;5012729;28;20429;-72
2021/10/21 11:12:51;;;;;;;19.05;11.52;;;15.70;90.70;;;;;;5012903;28;20026;-73
2021/10/21 11:15:41;;;;;;;17.42;9.85;;;15.70;90.60;;;;;;5013058;28;20018;-70
2021/10/21 11:18:07;;;;;;;16.73;9.57;;;15.70;90.70;;;;;;5011448;28;20088;-76
2021/10/21 11:20:33;;;;;;;19.55;10.40;;;15.70;90.70;;;;;;5012809;28;20490;-74
2021/10/21 11:23:02;;;;;;;18.10;10.07;;;15.70;90.70;;;;;;5013087;28;20101;-75
2021/10/21 11:25:30;;;;;;;20.63;11.63;;;15.70;90.70;;;;;;5013004;28;20110;-74
2021/10/21 11:27:57;;;;;;;17.15;11.45;;;15.70;91.50;;;;;;5010389;28;20041;-70
2021/10/21 11:30:25;;;;;;;15.90;10.60;;;15.70;91.10;;;;;;5009987;28;20088;-68
2021/10/21 11:32:53;;;;;;;19.90;12.63;;;15.70;91.00;;;;;;5010655;28;20498;-71
2021/10/21 11:35:22;;;;;;;15.65;11.32;;;15.70;91.20;;;;;;5012534;28;20475;-71
2021/10/21 11:37:50;;;;;;;18.65;12.43;;;15.70;91.40;;;;;;5015868;28;20386;-70
2021/10/21 11:40:24;;;;;;;18.73;12.02;;;15.70;91.30;;;;;;5016091;28;20053;-69
2021/10/21 11:45:41;;;;;;;21.40;10.05;;;15.70;91.40;;;;;;5016605;28;20044;-71
2021/10/21 11:48:10;;;;;;;20.30;10.82;;;15.70;91.20;;;;;;5016420;28;20466;-68
2021/10/21 11:50:47;;;;;;;16.90;9.25;;;15.70;91.30;;;;;;5015904;28;20044;-71
2021/10/21 11:53:14;;;;;;;14.00;8.57;;;15.70;91.20;;;;;;5016222;28;20432;-71
2021/10/21 11:55:42;;;;;;;17.92;9.90;;;15.70;91.10;;;;;;5014800;28;20018;-71
2021/10/21 11:58:23;;;;;;;21.02;9.73;;;15.70;90.90;;;;;;5013478;28;20036;-71
2021/10/21 12:00:51;;;;;;;15.43;8.77;;;15.70;91.10;;;;;;5013386;28;20045;-69
2021/10/21 12:03:17;;;;;;;21.40;9.35;;;15.70;91.00;;;;;;5015333;28;20045;-71
2021/10/21 12:05:44;;;;;;;14.02;8.45;;;15.80;91.00;;;;;;5015987;28;20026;-69
2021/10/21 12:08:19;;;;;;;18.77;9.02;;;15.80;91.00;;;;;;5015819;28;20079;-70
2021/10/21 12:10:46;;;;;;;17.83;8.57;;;15.80;91.00;;;;;;5015909;28;20022;-70
2021/10/21 12:13:24;;;;;;;18.35;8.95;;;15.80;91.00;;;;;;5016058;28;20042;-67
2021/10/21 12:15:52;;;;;;;19.73;9.15;;;15.80;91.10;;;;;;5016027;28;20367;-70
2021/10/21 12:18:18;;;;;;;21.13;10.15;;;15.80;91.10;;;;;;5015891;28;20025;-71
2021/10/21 12:20:46;;;;;;;23.50;10.48;;;15.80;91.10;;;;;;5015736;28;20025;-71
2021/10/21 12:23:12;;;;;;;15.95;9.35;;;15.80;91.20;;;;;;5015817;28;20432;-72
2021/10/21 12:25:38;;;;;;;16.92;8.65;;;15.80;91.10;;;;;;5015470;28;20022;-71
2021/10/21 12:28:04;;;;;;;16.40;9.23;;;15.80;91.10;;;;;;5015470;28;20021;-71
2021/10/21 12:30:35;;;;;;;21.77;9.73;;;15.80;91.00;;;;;;5015546;28;20097;-71
2021/10/21 12:33:09;;;;;;;17.15;10.18;;;15.80;90.90;;;;;;5015484;28;20038;-71
2021/10/21 12:35:36;;;;;;;21.35;10.57;;;15.80;91.10;;;;;;5015454;28;20344;-68
2021/10/21 12:38:15;;;;;;;21.70;10.20;;;15.80;91.30;;;;;;5015245;28;20022;-69
2021/10/21 12:40:40;;;;;;;21.38;8.60;;;15.80;91.00;;;;;;5014917;28;20034;-71
2021/10/21 12:43:14;;;;;;;15.02;8.82;;;15.80;90.90;;;;;;5015364;28;20375;-71
2021/10/21 12:45:40;;;;;;;15.38;8.98;;;15.80;91.10;;;;;;5015224;28;20044;-69